This is the latest recevied weather packets stored in our database for station/object SP4MAZ-13. If no packets are shown the sender has not sent any weather packets the latest 10 day(s).
| Time | Temp. | Humidity | Pressure | Rain* | Wind** | Luminosity | Snow |
|---|---|---|---|---|---|---|---|
| 1777378905 | 7.78° C | 53% | 2147.4 hPa | - | - | - | - |
| 1777378601 | 7.22° C | 54% | 2147.4 hPa | - | - | - | - |
| 1777378300 | 7.22° C | 51% | 2147.4 hPa | - | - | - | - |
| 1777377997 | 7.78° C | 51% | 2147.4 hPa | - | - | - | - |
| 1777377693 | 7.22° C | 56% | 2147.4 hPa | - | - | - | - |
| 1777377390 | 7.22° C | 55% | 2147.4 hPa | - | - | - | - |
| 1777377087 | 6.67° C | 59% | 2147.4 hPa | - | - | - | - |
| 1777376786 | 7.22° C | 56% | 2147.4 hPa | - | - | - | - |
| 1777376485 | 7.22° C | 57% | 2147.4 hPa | - | - | - | - |
| 1777376182 | 7.22° C | 59% | 2147.4 hPa | - | - | - | - |
| 1777375879 | 7.22° C | 60% | 2147.4 hPa | - | - | - | - |
| 1777375575 | 6.67° C | 59% | 2147.4 hPa | - | - | - | - |
| 1777375271 | 6.11° C | 64% | 2147.4 hPa | - | - | - | - |
| 1777374968 | 5.56° C | 64% | 2147.4 hPa | - | - | - | - |
| 1777374664 | 5° C | 69% | 2147.4 hPa | - | - | - | - |
| 1777374360 | 5° C | 71% | 2147.4 hPa | - | - | - | - |
| 1777374058 | 5° C | 78% | 2147.4 hPa | - | - | - | - |
| 1777373754 | 5° C | 80% | 2147.4 hPa | - | - | - | - |
| 1777373451 | 5° C | 80% | 2147.4 hPa | - | - | - | - |
| 1777373147 | 5° C | 89% | 2147.4 hPa | - | - | - | - |
| 1777372844 | 4.44° C | 86% | 2147.4 hPa | - | - | - | - |
| 1777372541 | 3.89° C | 92% | 2147.4 hPa | - | - | - | - |
| 1777372237 | 3.33° C | 92% | 2147.4 hPa | - | - | - | - |
| 1777371933 | 4.44° C | 76% | 2147.4 hPa | - | - | - | - |
| 1777371630 | 5.56° C | 67% | 2147.4 hPa | - | - | - | - |
* Rain since midnight (hover to see other rain measurements)
** Current wind speed in m/s (hover to see current wind gust speed)